sensor_id;sensor_type;location;lat;lon;timestamp;temperature;humidity
34137;DHT22;20414;50.860;4.382;2022-08-03T00:01:42;24.10;61.50
34137;DHT22;20414;50.860;4.382;2022-08-03T00:04:09;23.80;62.40
34137;DHT22;20414;50.860;4.382;2022-08-03T00:06:35;23.80;62.50
34137;DHT22;20414;50.860;4.382;2022-08-03T00:09:03;23.70;63.00
34137;DHT22;20414;50.860;4.382;2022-08-03T00:11:29;23.40;63.70
34137;DHT22;20414;50.860;4.382;2022-08-03T00:13:54;23.40;64.00
34137;DHT22;20414;50.860;4.382;2022-08-03T00:16:20;23.30;64.30
34137;DHT22;20414;50.860;4.382;2022-08-03T00:18:45;23.50;63.80
34137;DHT22;20414;50.860;4.382;2022-08-03T00:21:11;23.50;63.20
34137;DHT22;20414;50.860;4.382;2022-08-03T00:23:37;23.30;64.40
34137;DHT22;20414;50.860;4.382;2022-08-03T00:26:03;23.20;64.90
34137;DHT22;20414;50.860;4.382;2022-08-03T00:28:29;23.40;64.00
34137;DHT22;20414;50.860;4.382;2022-08-03T00:30:55;23.20;64.70
34137;DHT22;20414;50.860;4.382;2022-08-03T00:33:21;23.10;65.40
34137;DHT22;20414;50.860;4.382;2022-08-03T00:35:47;22.90;66.20
34137;DHT22;20414;50.860;4.382;2022-08-03T00:38:13;22.70;67.00
34137;DHT22;20414;50.860;4.382;2022-08-03T00:40:39;22.70;67.40
34137;DHT22;20414;50.860;4.382;2022-08-03T00:43:06;22.70;67.40
34137;DHT22;20414;50.860;4.382;2022-08-03T00:45:34;22.80;67.20
34137;DHT22;20414;50.860;4.382;2022-08-03T00:48:00;22.60;67.40
34137;DHT22;20414;50.860;4.382;2022-08-03T00:50:28;22.50;68.20
34137;DHT22;20414;50.860;4.382;2022-08-03T00:52:56;22.70;67.50
34137;DHT22;20414;50.860;4.382;2022-08-03T00:55:22;22.70;67.70
34137;DHT22;20414;50.860;4.382;2022-08-03T00:57:48;22.60;68.10
34137;DHT22;20414;50.860;4.382;2022-08-03T01:00:20;22.50;68.50
34137;DHT22;20414;50.860;4.382;2022-08-03T01:02:46;22.40;68.90
34137;DHT22;20414;50.860;4.382;2022-08-03T01:05:12;22.30;69.20
34137;DHT22;20414;50.860;4.382;2022-08-03T01:15:59;22.20;70.10
34137;DHT22;20414;50.860;4.382;2022-08-03T01:18:40;22.20;70.20
34137;DHT22;20414;50.860;4.382;2022-08-03T01:21:23;22.20;70.40
34137;DHT22;20414;50.860;4.382;2022-08-03T01:26:53;22.00;71.30
34137;DHT22;20414;50.860;4.382;2022-08-03T01:32:45;22.00;71.30
34137;DHT22;20414;50.860;4.382;2022-08-03T01:35:16;21.80;72.50
34137;DHT22;20414;50.860;4.382;2022-08-03T01:37:54;21.70;72.80
34137;DHT22;20414;50.860;4.382;2022-08-03T01:40:24;21.60;73.00
34137;DHT22;20414;50.860;4.382;2022-08-03T01:42:50;21.60;73.30
34137;DHT22;20414;50.860;4.382;2022-08-03T01:45:17;21.50;73.70
34137;DHT22;20414;50.860;4.382;2022-08-03T01:47:45;21.50;73.70
34137;DHT22;20414;50.860;4.382;2022-08-03T01:50:13;21.50;74.00
34137;DHT22;20414;50.860;4.382;2022-08-03T01:52:41;21.50;74.10
34137;DHT22;20414;50.860;4.382;2022-08-03T01:55:09;21.40;74.30
34137;DHT22;20414;50.860;4.382;2022-08-03T01:57:37;21.30;74.70
34137;DHT22;20414;50.860;4.382;2022-08-03T02:00:04;21.20;75.30
34137;DHT22;20414;50.860;4.382;2022-08-03T02:02:35;21.30;75.20
34137;DHT22;20414;50.860;4.382;2022-08-03T02:05:04;21.40;74.90
34137;DHT22;20414;50.860;4.382;2022-08-03T02:07:31;21.40;74.80
34137;DHT22;20414;50.860;4.382;2022-08-03T02:09:58;21.20;75.50
34137;DHT22;20414;50.860;4.382;2022-08-03T02:12:27;21.20;75.90
34137;DHT22;20414;50.860;4.382;2022-08-03T02:14:55;21.10;76.20
34137;DHT22;20414;50.860;4.382;2022-08-03T02:17:22;21.00;76.40
34137;DHT22;20414;50.860;4.382;2022-08-03T02:19:50;21.00;76.70
34137;DHT22;20414;50.860;4.382;2022-08-03T02:22:16;20.90;77.00
34137;DHT22;20414;50.860;4.382;2022-08-03T02:24:42;20.80;77.30
34137;DHT22;20414;50.860;4.382;2022-08-03T02:27:21;20.70;78.00
34137;DHT22;20414;50.860;4.382;2022-08-03T02:29:51;20.70;78.40
34137;DHT22;20414;50.860;4.382;2022-08-03T02:32:22;20.70;78.40
34137;DHT22;20414;50.860;4.382;2022-08-03T02:34:50;20.70;78.50
34137;DHT22;20414;50.860;4.382;2022-08-03T02:37:18;20.80;78.40
34137;DHT22;20414;50.860;4.382;2022-08-03T02:39:45;20.80;78.30
34137;DHT22;20414;50.860;4.382;2022-08-03T02:42:13;20.80;78.40
34137;DHT22;20414;50.860;4.382;2022-08-03T02:44:40;20.60;79.30
34137;DHT22;20414;50.860;4.382;2022-08-03T02:47:12;20.50;79.60
34137;DHT22;20414;50.860;4.382;2022-08-03T02:49:41;20.50;79.70
34137;DHT22;20414;50.860;4.382;2022-08-03T02:52:09;20.40;80.20
34137;DHT22;20414;50.860;4.382;2022-08-03T02:54:37;20.30;80.50
34137;DHT22;20414;50.860;4.382;2022-08-03T02:57:06;20.30;81.00
34137;DHT22;20414;50.860;4.382;2022-08-03T02:59:32;20.30;80.90
34137;DHT22;20414;50.860;4.382;2022-08-03T03:01:59;20.30;81.00
34137;DHT22;20414;50.860;4.382;2022-08-03T03:04:27;20.40;80.80
34137;DHT22;20414;50.860;4.382;2022-08-03T03:06:54;20.30;81.00
34137;DHT22;20414;50.860;4.382;2022-08-03T03:09:21;20.20;81.30
34137;DHT22;20414;50.860;4.382;2022-08-03T03:11:48;20.30;80.90
34137;DHT22;20414;50.860;4.382;2022-08-03T03:14:14;20.30;80.90
34137;DHT22;20414;50.860;4.382;2022-08-03T03:16:41;20.20;81.50
34137;DHT22;20414;50.860;4.382;2022-08-03T03:19:10;20.10;81.90
34137;DHT22;20414;50.860;4.382;2022-08-03T03:21:37;20.10;82.20
34137;DHT22;20414;50.860;4.382;2022-08-03T03:24:04;20.00;82.20
34137;DHT22;20414;50.860;4.382;2022-08-03T03:26:31;20.00;82.40
34137;DHT22;20414;50.860;4.382;2022-08-03T03:28:57;19.90;82.50
34137;DHT22;20414;50.860;4.382;2022-08-03T03:31:23;19.90;83.20
34137;DHT22;20414;50.860;4.382;2022-08-03T03:33:49;19.80;83.30
34137;DHT22;20414;50.860;4.382;2022-08-03T03:36:15;19.70;83.60
34137;DHT22;20414;50.860;4.382;2022-08-03T03:38:41;19.80;83.50
34137;DHT22;20414;50.860;4.382;2022-08-03T03:41:06;19.70;83.90
34137;DHT22;20414;50.860;4.382;2022-08-03T03:43:32;19.80;83.60
34137;DHT22;20414;50.860;4.382;2022-08-03T03:45:58;19.80;83.50
34137;DHT22;20414;50.860;4.382;2022-08-03T03:48:25;19.90;82.90
34137;DHT22;20414;50.860;4.382;2022-08-03T03:50:51;19.90;82.60
34137;DHT22;20414;50.860;4.382;2022-08-03T03:53:17;19.80;83.00
34137;DHT22;20414;50.860;4.382;2022-08-03T03:55:43;19.80;83.60
34137;DHT22;20414;50.860;4.382;2022-08-03T03:58:08;19.80;83.70
34137;DHT22;20414;50.860;4.382;2022-08-03T04:00:34;19.70;83.90
34137;DHT22;20414;50.860;4.382;2022-08-03T04:03:00;19.70;84.00
34137;DHT22;20414;50.860;4.382;2022-08-03T04:05:25;19.70;84.00
34137;DHT22;20414;50.860;4.382;2022-08-03T04:08:13;19.80;84.00
34137;DHT22;20414;50.860;4.382;2022-08-03T04:13:41;19.70;84.40
34137;DHT22;20414;50.860;4.382;2022-08-03T04:16:11;19.70;85.20
34137;DHT22;20414;50.860;4.382;2022-08-03T04:18:39;19.80;84.20
34137;DHT22;20414;50.860;4.382;2022-08-03T04:21:08;19.80;84.00
34137;DHT22;20414;50.860;4.382;2022-08-03T04:23:38;19.70;84.30
34137;DHT22;20414;50.860;4.382;2022-08-03T04:26:08;19.70;84.10
34137;DHT22;20414;50.860;4.382;2022-08-03T04:28:35;19.60;84.80
34137;DHT22;20414;50.860;4.382;2022-08-03T04:31:03;19.60;84.70
34137;DHT22;20414;50.860;4.382;2022-08-03T04:33:33;19.70;84.70
34137;DHT22;20414;50.860;4.382;2022-08-03T04:36:01;19.60;84.90
34137;DHT22;20414;50.860;4.382;2022-08-03T04:38:29;19.60;85.10
34137;DHT22;20414;50.860;4.382;2022-08-03T04:40:56;19.50;85.70
34137;DHT22;20414;50.860;4.382;2022-08-03T04:43:24;19.50;85.90
34137;DHT22;20414;50.860;4.382;2022-08-03T04:45:50;19.50;86.10
34137;DHT22;20414;50.860;4.382;2022-08-03T04:48:18;19.50;86.20
34137;DHT22;20414;50.860;4.382;2022-08-03T04:50:45;19.50;86.30
34137;DHT22;20414;50.860;4.382;2022-08-03T04:53:11;19.60;86.10
34137;DHT22;20414;50.860;4.382;2022-08-03T04:55:37;19.60;85.70
34137;DHT22;20414;50.860;4.382;2022-08-03T04:58:03;19.80;85.10
34137;DHT22;20414;50.860;4.382;2022-08-03T05:00:29;19.80;85.10
34137;DHT22;20414;50.860;4.382;2022-08-03T05:02:55;19.80;85.10
34137;DHT22;20414;50.860;4.382;2022-08-03T05:05:21;19.80;85.00
34137;DHT22;20414;50.860;4.382;2022-08-03T05:07:47;19.80;85.00
34137;DHT22;20414;50.860;4.382;2022-08-03T05:10:13;19.90;84.80
34137;DHT22;20414;50.860;4.382;2022-08-03T05:12:39;19.80;85.10
34137;DHT22;20414;50.860;4.382;2022-08-03T05:15:06;20.00;84.10
34137;DHT22;20414;50.860;4.382;2022-08-03T05:17:32;20.10;84.00
34137;DHT22;20414;50.860;4.382;2022-08-03T05:19:59;20.10;83.70
34137;DHT22;20414;50.860;4.382;2022-08-03T05:22:25;20.20;83.20
34137;DHT22;20414;50.860;4.382;2022-08-03T05:24:50;20.30;83.00
34137;DHT22;20414;50.860;4.382;2022-08-03T05:27:16;20.30;82.50
34137;DHT22;20414;50.860;4.382;2022-08-03T05:29:44;20.40;82.20
34137;DHT22;20414;50.860;4.382;2022-08-03T05:32:10;20.50;81.90
34137;DHT22;20414;50.860;4.382;2022-08-03T05:34:36;20.50;81.30
34137;DHT22;20414;50.860;4.382;2022-08-03T05:37:02;20.60;82.00
34137;DHT22;20414;50.860;4.382;2022-08-03T05:39:27;20.70;81.80
34137;DHT22;20414;50.860;4.382;2022-08-03T05:41:53;20.70;82.00
34137;DHT22;20414;50.860;4.382;2022-08-03T05:44:19;20.70;81.20
34137;DHT22;20414;50.860;4.382;2022-08-03T05:46:45;20.90;80.20
34137;DHT22;20414;50.860;4.382;2022-08-03T05:49:11;21.00;79.70
34137;DHT22;20414;50.860;4.382;2022-08-03T05:51:36;21.00;80.00
34137;DHT22;20414;50.860;4.382;2022-08-03T05:54:02;21.10;80.30
34137;DHT22;20414;50.860;4.382;2022-08-03T05:56:28;21.10;79.40
34137;DHT22;20414;50.860;4.382;2022-08-03T05:58:54;21.20;79.30
34137;DHT22;20414;50.860;4.382;2022-08-03T06:01:20;21.30;78.50
34137;DHT22;20414;50.860;4.382;2022-08-03T06:03:47;21.30;78.90
34137;DHT22;20414;50.860;4.382;2022-08-03T06:06:14;21.40;77.50
34137;DHT22;20414;50.860;4.382;2022-08-03T06:08:40;21.60;77.00
34137;DHT22;20414;50.860;4.382;2022-08-03T06:11:06;21.70;76.20
34137;DHT22;20414;50.860;4.382;2022-08-03T06:13:33;21.70;75.90
34137;DHT22;20414;50.860;4.382;2022-08-03T06:15:58;21.70;75.80
34137;DHT22;20414;50.860;4.382;2022-08-03T06:18:24;21.70;75.80
34137;DHT22;20414;50.860;4.382;2022-08-03T06:20:50;21.80;75.60
34137;DHT22;20414;50.860;4.382;2022-08-03T06:23:16;21.90;75.30
34137;DHT22;20414;50.860;4.382;2022-08-03T06:25:42;21.90;74.70
34137;DHT22;20414;50.860;4.382;2022-08-03T06:28:08;22.00;74.70
34137;DHT22;20414;50.860;4.382;2022-08-03T06:30:34;22.00;74.80
34137;DHT22;20414;50.860;4.382;2022-08-03T06:33:00;22.10;74.30
34137;DHT22;20414;50.860;4.382;2022-08-03T06:35:26;22.10;74.50
34137;DHT22;20414;50.860;4.382;2022-08-03T06:37:52;22.10;74.00
34137;DHT22;20414;50.860;4.382;2022-08-03T06:40:20;22.20;73.60
34137;DHT22;20414;50.860;4.382;2022-08-03T06:42:56;22.30;72.90
34137;DHT22;20414;50.860;4.382;2022-08-03T06:45:22;22.40;72.70
34137;DHT22;20414;50.860;4.382;2022-08-03T06:48:05;22.40;72.10
34137;DHT22;20414;50.860;4.382;2022-08-03T06:50:32;22.50;72.20
34137;DHT22;20414;50.860;4.382;2022-08-03T06:52:59;22.60;71.80
34137;DHT22;20414;50.860;4.382;2022-08-03T06:55:25;22.70;71.50
34137;DHT22;20414;50.860;4.382;2022-08-03T06:57:50;22.70;71.10
34137;DHT22;20414;50.860;4.382;2022-08-03T07:00:16;22.80;70.60
34137;DHT22;20414;50.860;4.382;2022-08-03T07:02:42;22.80;70.30
34137;DHT22;20414;50.860;4.382;2022-08-03T07:05:09;22.80;70.00
34137;DHT22;20414;50.860;4.382;2022-08-03T07:07:35;22.90;69.80
34137;DHT22;20414;50.860;4.382;2022-08-03T07:10:00;22.90;69.50
34137;DHT22;20414;50.860;4.382;2022-08-03T07:12:28;22.90;69.30
34137;DHT22;20414;50.860;4.382;2022-08-03T07:14:55;23.00;69.10
34137;DHT22;20414;50.860;4.382;2022-08-03T07:17:21;23.00;68.90
34137;DHT22;20414;50.860;4.382;2022-08-03T07:19:47;23.00;68.70
34137;DHT22;20414;50.860;4.382;2022-08-03T07:22:13;23.10;69.20
34137;DHT22;20414;50.860;4.382;2022-08-03T07:24:39;23.10;68.30
34137;DHT22;20414;50.860;4.382;2022-08-03T07:27:06;23.10;68.20
34137;DHT22;20414;50.860;4.382;2022-08-03T07:29:33;23.20;68.00
34137;DHT22;20414;50.860;4.382;2022-08-03T07:31:59;23.20;67.90
34137;DHT22;20414;50.860;4.382;2022-08-03T07:34:25;23.20;67.70
34137;DHT22;20414;50.860;4.382;2022-08-03T07:36:51;23.30;67.60
34137;DHT22;20414;50.860;4.382;2022-08-03T07:39:17;23.30;67.40
34137;DHT22;20414;50.860;4.382;2022-08-03T07:41:42;23.30;67.20
34137;DHT22;20414;50.860;4.382;2022-08-03T07:44:08;23.30;67.10
34137;DHT22;20414;50.860;4.382;2022-08-03T07:46:34;23.40;67.00
34137;DHT22;20414;50.860;4.382;2022-08-03T07:48:59;23.40;66.80
34137;DHT22;20414;50.860;4.382;2022-08-03T07:51:26;23.40;66.70
34137;DHT22;20414;50.860;4.382;2022-08-03T07:53:51;23.40;66.60
34137;DHT22;20414;50.860;4.382;2022-08-03T07:56:17;23.40;66.40
34137;DHT22;20414;50.860;4.382;2022-08-03T07:58:44;23.50;66.40
34137;DHT22;20414;50.860;4.382;2022-08-03T08:01:09;23.50;66.20
34137;DHT22;20414;50.860;4.382;2022-08-03T08:03:35;23.50;66.10
34137;DHT22;20414;50.860;4.382;2022-08-03T08:06:01;23.50;66.00
34137;DHT22;20414;50.860;4.382;2022-08-03T08:08:26;23.50;65.80
34137;DHT22;20414;50.860;4.382;2022-08-03T08:10:52;23.60;65.70
34137;DHT22;20414;50.860;4.382;2022-08-03T08:13:17;23.60;65.60
34137;DHT22;20414;50.860;4.382;2022-08-03T08:15:43;23.60;65.50
34137;DHT22;20414;50.860;4.382;2022-08-03T08:18:09;23.70;65.50
34137;DHT22;20414;50.860;4.382;2022-08-03T08:20:35;23.70;65.40
34137;DHT22;20414;50.860;4.382;2022-08-03T08:23:05;23.70;65.20
34137;DHT22;20414;50.860;4.382;2022-08-03T08:25:31;23.70;65.10
34137;DHT22;20414;50.860;4.382;2022-08-03T08:27:57;23.80;65.00
34137;DHT22;20414;50.860;4.382;2022-08-03T08:30:26;23.80;65.00
34137;DHT22;20414;50.860;4.382;2022-08-03T08:32:51;23.80;64.80
34137;DHT22;20414;50.860;4.382;2022-08-03T08:35:17;23.80;64.70
34137;DHT22;20414;50.860;4.382;2022-08-03T08:37:44;23.80;64.60
34137;DHT22;20414;50.860;4.382;2022-08-03T08:40:10;23.90;64.50
34137;DHT22;20414;50.860;4.382;2022-08-03T08:42:38;23.90;64.40
34137;DHT22;20414;50.860;4.382;2022-08-03T08:45:04;23.90;64.30
34137;DHT22;20414;50.860;4.382;2022-08-03T08:47:31;23.90;64.20
34137;DHT22;20414;50.860;4.382;2022-08-03T08:49:58;23.90;64.10
34137;DHT22;20414;50.860;4.382;2022-08-03T08:52:26;24.00;63.90
34137;DHT22;20414;50.860;4.382;2022-08-03T08:54:58;24.00;63.90
34137;DHT22;20414;50.860;4.382;2022-08-03T08:57:28;24.00;63.80
34137;DHT22;20414;50.860;4.382;2022-08-03T08:59:55;24.00;63.70
34137;DHT22;20414;50.860;4.382;2022-08-03T09:02:22;24.00;63.60
34137;DHT22;20414;50.860;4.382;2022-08-03T09:04:48;24.10;63.60
34137;DHT22;20414;50.860;4.382;2022-08-03T09:07:15;24.10;63.50
34137;DHT22;20414;50.860;4.382;2022-08-03T09:09:41;24.10;63.40
34137;DHT22;20414;50.860;4.382;2022-08-03T09:12:07;24.10;63.30
34137;DHT22;20414;50.860;4.382;2022-08-03T09:14:33;24.10;63.20
34137;DHT22;20414;50.860;4.382;2022-08-03T09:17:00;24.10;63.10
34137;DHT22;20414;50.860;4.382;2022-08-03T09:19:28;24.20;63.10
34137;DHT22;20414;50.860;4.382;2022-08-03T09:22:15;24.20;63.00
34137;DHT22;20414;50.860;4.382;2022-08-03T09:25:01;24.20;62.90
34137;DHT22;20414;50.860;4.382;2022-08-03T09:27:28;24.20;62.80
34137;DHT22;20414;50.860;4.382;2022-08-03T09:29:54;24.20;62.70
34137;DHT22;20414;50.860;4.382;2022-08-03T09:32:24;24.20;62.70
34137;DHT22;20414;50.860;4.382;2022-08-03T09:34:51;24.30;62.70
34137;DHT22;20414;50.860;4.382;2022-08-03T09:37:19;24.30;62.50
34137;DHT22;20414;50.860;4.382;2022-08-03T09:39:45;24.30;62.50
34137;DHT22;20414;50.860;4.382;2022-08-03T09:42:16;24.30;62.40
34137;DHT22;20414;50.860;4.382;2022-08-03T09:44:44;24.40;62.40
34137;DHT22;20414;50.860;4.382;2022-08-03T09:47:12;24.40;62.30
34137;DHT22;20414;50.860;4.382;2022-08-03T09:49:39;24.40;62.30
34137;DHT22;20414;50.860;4.382;2022-08-03T09:52:17;24.40;62.20
34137;DHT22;20414;50.860;4.382;2022-08-03T09:54:50;24.40;62.20
34137;DHT22;20414;50.860;4.382;2022-08-03T09:57:23;24.40;62.10
34137;DHT22;20414;50.860;4.382;2022-08-03T09:59:51;24.40;62.00
34137;DHT22;20414;50.860;4.382;2022-08-03T10:02:25;24.40;61.90
34137;DHT22;20414;50.860;4.382;2022-08-03T10:04:51;24.40;61.90
34137;DHT22;20414;50.860;4.382;2022-08-03T10:07:21;24.50;61.90
34137;DHT22;20414;50.860;4.382;2022-08-03T10:09:59;24.50;61.80
34137;DHT22;20414;50.860;4.382;2022-08-03T10:12:25;24.50;61.80
34137;DHT22;20414;50.860;4.382;2022-08-03T10:14:52;24.50;61.70
34137;DHT22;20414;50.860;4.382;2022-08-03T10:17:19;24.50;61.60
34137;DHT22;20414;50.860;4.382;2022-08-03T10:19:45;24.50;61.60
34137;DHT22;20414;50.860;4.382;2022-08-03T10:24:39;24.50;61.60
34137;DHT22;20414;50.860;4.382;2022-08-03T10:27:09;24.50;61.50
34137;DHT22;20414;50.860;4.382;2022-08-03T10:29:42;24.50;61.40
34137;DHT22;20414;50.860;4.382;2022-08-03T10:32:48;24.50;61.40
34137;DHT22;20414;50.860;4.382;2022-08-03T10:35:18;24.60;61.40
34137;DHT22;20414;50.860;4.382;2022-08-03T10:40:15;24.60;61.30
34137;DHT22;20414;50.860;4.382;2022-08-03T10:42:45;24.60;61.20
34137;DHT22;20414;50.860;4.382;2022-08-03T10:45:26;24.60;61.20
34137;DHT22;20414;50.860;4.382;2022-08-03T10:47:54;24.60;61.10
34137;DHT22;20414;50.860;4.382;2022-08-03T10:50:24;24.70;61.10
34137;DHT22;20414;50.860;4.382;2022-08-03T10:58:52;24.70;61.00
34137;DHT22;20414;50.860;4.382;2022-08-03T11:01:50;24.70;60.90
34137;DHT22;20414;50.860;4.382;2022-08-03T11:04:18;24.70;60.90
34137;DHT22;20414;50.860;4.382;2022-08-03T11:06:44;24.70;60.80
34137;DHT22;20414;50.860;4.382;2022-08-03T11:09:17;24.70;60.70
34137;DHT22;20414;50.860;4.382;2022-08-03T11:11:47;24.70;60.80
34137;DHT22;20414;50.860;4.382;2022-08-03T11:14:19;24.80;60.70
34137;DHT22;20414;50.860;4.382;2022-08-03T11:16:49;24.70;60.60
34137;DHT22;20414;50.860;4.382;2022-08-03T11:19:18;24.70;60.60
34137;DHT22;20414;50.860;4.382;2022-08-03T11:40:48;24.80;60.30
34137;DHT22;20414;50.860;4.382;2022-08-03T11:48:41;24.90;60.20
34137;DHT22;20414;50.860;4.382;2022-08-03T11:51:19;24.90;60.20
34137;DHT22;20414;50.860;4.382;2022-08-03T11:53:45;24.90;60.10
34137;DHT22;20414;50.860;4.382;2022-08-03T11:56:13;24.90;60.10
34137;DHT22;20414;50.860;4.382;2022-08-03T11:58:49;24.90;60.10
34137;DHT22;20414;50.860;4.382;2022-08-03T12:01:18;24.90;60.00
34137;DHT22;20414;50.860;4.382;2022-08-03T12:03:44;24.90;60.00
34137;DHT22;20414;50.860;4.382;2022-08-03T12:06:11;24.90;60.00
34137;DHT22;20414;50.860;4.382;2022-08-03T12:08:38;24.90;60.00
34137;DHT22;20414;50.860;4.382;2022-08-03T12:11:05;24.90;60.00
34137;DHT22;20414;50.860;4.382;2022-08-03T12:13:47;25.00;59.90
34137;DHT22;20414;50.860;4.382;2022-08-03T12:18:44;25.00;59.90
34137;DHT22;20414;50.860;4.382;2022-08-03T12:21:11;25.00;59.90
34137;DHT22;20414;50.860;4.382;2022-08-03T12:23:37;25.00;59.80
34137;DHT22;20414;50.860;4.382;2022-08-03T12:26:05;25.00;59.80
34137;DHT22;20414;50.860;4.382;2022-08-03T12:28:32;25.00;59.80
34137;DHT22;20414;50.860;4.382;2022-08-03T12:31:04;25.00;59.80
34137;DHT22;20414;50.860;4.382;2022-08-03T12:33:31;25.00;60.40
34137;DHT22;20414;50.860;4.382;2022-08-03T12:36:07;25.10;59.80
34137;DHT22;20414;50.860;4.382;2022-08-03T12:38:36;25.10;59.70
34137;DHT22;20414;50.860;4.382;2022-08-03T12:41:08;25.10;59.70
34137;DHT22;20414;50.860;4.382;2022-08-03T12:43:49;25.10;59.70
34137;DHT22;20414;50.860;4.382;2022-08-03T12:46:17;25.10;59.60
34137;DHT22;20414;50.860;4.382;2022-08-03T12:49:15;25.10;59.60
34137;DHT22;20414;50.860;4.382;2022-08-03T12:54:14;25.10;59.60
34137;DHT22;20414;50.860;4.382;2022-08-03T12:57:03;25.10;59.50
34137;DHT22;20414;50.860;4.382;2022-08-03T12:59:36;25.10;59.50
34137;DHT22;20414;50.860;4.382;2022-08-03T13:02:03;25.10;59.50
34137;DHT22;20414;50.860;4.382;2022-08-03T13:04:33;25.10;59.40
34137;DHT22;20414;50.860;4.382;2022-08-03T13:07:01;25.10;59.40
34137;DHT22;20414;50.860;4.382;2022-08-03T13:09:29;25.10;59.40
34137;DHT22;20414;50.860;4.382;2022-08-03T13:12:16;25.10;59.40
34137;DHT22;20414;50.860;4.382;2022-08-03T13:14:44;25.20;59.40
34137;DHT22;20414;50.860;4.382;2022-08-03T13:17:11;25.20;59.40
34137;DHT22;20414;50.860;4.382;2022-08-03T13:19:38;25.20;59.40
34137;DHT22;20414;50.860;4.382;2022-08-03T13:22:21;25.20;59.30
34137;DHT22;20414;50.860;4.382;2022-08-03T13:24:50;25.20;59.30
34137;DHT22;20414;50.860;4.382;2022-08-03T13:27:17;25.20;59.30
34137;DHT22;20414;50.860;4.382;2022-08-03T13:29:43;25.20;59.20
34137;DHT22;20414;50.860;4.382;2022-08-03T13:32:09;25.20;59.20
34137;DHT22;20414;50.860;4.382;2022-08-03T13:34:36;25.20;59.20
34137;DHT22;20414;50.860;4.382;2022-08-03T13:37:02;25.30;59.20
34137;DHT22;20414;50.860;4.382;2022-08-03T13:39:28;25.30;59.20
34137;DHT22;20414;50.860;4.382;2022-08-03T13:41:54;25.20;59.10
34137;DHT22;20414;50.860;4.382;2022-08-03T13:44:20;25.30;59.20
34137;DHT22;20414;50.860;4.382;2022-08-03T13:46:46;25.30;59.10
34137;DHT22;20414;50.860;4.382;2022-08-03T13:49:12;25.30;59.10
34137;DHT22;20414;50.860;4.382;2022-08-03T13:51:38;25.30;59.10
34137;DHT22;20414;50.860;4.382;2022-08-03T13:54:03;25.30;59.10
34137;DHT22;20414;50.860;4.382;2022-08-03T13:56:30;25.30;59.00
34137;DHT22;20414;50.860;4.382;2022-08-03T13:58:56;25.30;59.00
34137;DHT22;20414;50.860;4.382;2022-08-03T14:01:23;25.30;59.00
34137;DHT22;20414;50.860;4.382;2022-08-03T14:03:49;25.30;59.00
34137;DHT22;20414;50.860;4.382;2022-08-03T14:06:21;25.40;59.00
34137;DHT22;20414;50.860;4.382;2022-08-03T14:08:47;25.30;58.90
34137;DHT22;20414;50.860;4.382;2022-08-03T14:11:14;25.30;58.90
34137;DHT22;20414;50.860;4.382;2022-08-03T14:13:39;25.40;58.90
34137;DHT22;20414;50.860;4.382;2022-08-03T14:16:06;25.40;58.90
34137;DHT22;20414;50.860;4.382;2022-08-03T14:18:31;25.40;58.90
34137;DHT22;20414;50.860;4.382;2022-08-03T14:20:58;25.40;58.90
34137;DHT22;20414;50.860;4.382;2022-08-03T14:23:24;25.40;58.80
34137;DHT22;20414;50.860;4.382;2022-08-03T14:25:50;25.40;58.80
34137;DHT22;20414;50.860;4.382;2022-08-03T14:28:18;25.40;58.80
34137;DHT22;20414;50.860;4.382;2022-08-03T14:30:44;25.40;58.80
34137;DHT22;20414;50.860;4.382;2022-08-03T14:33:10;25.40;58.80
34137;DHT22;20414;50.860;4.382;2022-08-03T14:35:35;25.40;58.70
34137;DHT22;20414;50.860;4.382;2022-08-03T14:38:01;25.40;58.70
34137;DHT22;20414;50.860;4.382;2022-08-03T14:40:26;25.40;58.80
34137;DHT22;20414;50.860;4.382;2022-08-03T14:42:52;25.40;58.70
34137;DHT22;20414;50.860;4.382;2022-08-03T14:45:18;25.40;58.60
34137;DHT22;20414;50.860;4.382;2022-08-03T14:47:43;25.50;58.70
34137;DHT22;20414;50.860;4.382;2022-08-03T14:50:09;25.50;58.60
34137;DHT22;20414;50.860;4.382;2022-08-03T14:52:35;25.50;58.60
34137;DHT22;20414;50.860;4.382;2022-08-03T14:55:00;25.50;58.60
34137;DHT22;20414;50.860;4.382;2022-08-03T14:57:26;25.50;58.60
34137;DHT22;20414;50.860;4.382;2022-08-03T14:59:52;25.50;58.60
34137;DHT22;20414;50.860;4.382;2022-08-03T15:02:18;25.50;58.50
34137;DHT22;20414;50.860;4.382;2022-08-03T15:04:44;25.50;58.50
34137;DHT22;20414;50.860;4.382;2022-08-03T15:07:09;25.50;58.50
34137;DHT22;20414;50.860;4.382;2022-08-03T15:09:35;25.50;58.40
34137;DHT22;20414;50.860;4.382;2022-08-03T15:12:03;25.60;58.50
34137;DHT22;20414;50.860;4.382;2022-08-03T15:14:29;25.50;58.40
34137;DHT22;20414;50.860;4.382;2022-08-03T15:16:55;25.50;58.40
34137;DHT22;20414;50.860;4.382;2022-08-03T15:19:21;25.60;58.40
34137;DHT22;20414;50.860;4.382;2022-08-03T15:21:46;25.60;58.40
34137;DHT22;20414;50.860;4.382;2022-08-03T15:24:12;25.60;58.40
34137;DHT22;20414;50.860;4.382;2022-08-03T15:26:37;25.60;58.40
34137;DHT22;20414;50.860;4.382;2022-08-03T15:29:03;25.60;58.40
34137;DHT22;20414;50.860;4.382;2022-08-03T15:31:29;25.60;58.30
34137;DHT22;20414;50.860;4.382;2022-08-03T15:33:55;25.60;58.30
34137;DHT22;20414;50.860;4.382;2022-08-03T15:36:20;25.60;58.40
34137;DHT22;20414;50.860;4.382;2022-08-03T15:38:47;25.60;58.40
34137;DHT22;20414;50.860;4.382;2022-08-03T15:41:13;25.60;58.30
34137;DHT22;20414;50.860;4.382;2022-08-03T15:43:40;25.60;58.30
34137;DHT22;20414;50.860;4.382;2022-08-03T15:46:06;25.60;58.30
34137;DHT22;20414;50.860;4.382;2022-08-03T15:48:32;25.70;58.30
34137;DHT22;20414;50.860;4.382;2022-08-03T15:50:58;25.70;58.30
34137;DHT22;20414;50.860;4.382;2022-08-03T15:53:23;25.70;58.20
34137;DHT22;20414;50.860;4.382;2022-08-03T15:55:49;25.70;58.20
34137;DHT22;20414;50.860;4.382;2022-08-03T15:58:14;25.70;58.20
34137;DHT22;20414;50.860;4.382;2022-08-03T16:00:41;25.70;58.20
34137;DHT22;20414;50.860;4.382;2022-08-03T16:03:07;25.70;58.20
34137;DHT22;20414;50.860;4.382;2022-08-03T16:05:33;25.70;58.10
34137;DHT22;20414;50.860;4.382;2022-08-03T16:07:58;25.70;58.10
34137;DHT22;20414;50.860;4.382;2022-08-03T16:10:24;25.70;58.10
34137;DHT22;20414;50.860;4.382;2022-08-03T16:12:53;25.70;58.10
34137;DHT22;20414;50.860;4.382;2022-08-03T16:15:19;25.70;58.10
34137;DHT22;20414;50.860;4.382;2022-08-03T16:17:45;25.70;58.00
34137;DHT22;20414;50.860;4.382;2022-08-03T16:20:11;25.70;58.00
34137;DHT22;20414;50.860;4.382;2022-08-03T16:22:42;25.70;58.00
34137;DHT22;20414;50.860;4.382;2022-08-03T16:25:08;25.80;58.10
34137;DHT22;20414;50.860;4.382;2022-08-03T16:27:34;25.80;58.00
34137;DHT22;20414;50.860;4.382;2022-08-03T16:30:00;25.80;58.00
34137;DHT22;20414;50.860;4.382;2022-08-03T16:32:25;25.80;58.00